Time,TemperatureF,DewpointF,PressureIn,WindDirection,WindDirectionDegrees,WindSpeedMPH,WindSpeedGustMPH,Humidity,HourlyPrecipIn,Conditions,Clouds,dailyrainin,SoftwareType,DateUTC
2013-06-04 00:03:00,44.0,24.0,-100.00,NW,306,3.0,-999.0,44,-99.99,,,-99.99,,2013-06-04 04:03:00,
2013-06-04 00:13:00,44.0,24.0,-100.00,NW,306,3.0,-999.0,44,-99.99,,,-99.99,,2013-06-04 04:13:00,
2013-06-04 00:23:00,44.0,24.0,-100.00,North,0,3.0,-999.0,44,-99.99,,,-99.99,,2013-06-04 04:23:00,
2013-06-04 00:33:00,43.0,23.0,-100.00,NNW,344,2.0,-999.0,44,-99.99,,,-99.99,,2013-06-04 04:33:00,
2013-06-04 00:42:00,43.0,23.0,-100.00,NNW,344,2.0,-999.0,44,-99.99,,,-99.99,,2013-06-04 04:42:00,
2013-06-04 00:53:00,43.0,23.0,-100.00,NNW,344,2.0,-999.0,44,-99.99,,,-99.99,,2013-06-04 04:53:00,
2013-06-04 01:03:00,43.0,23.0,-100.00,NNW,344,2.0,-999.0,44,-99.99,,,-99.99,,2013-06-04 05:03:00,
2013-06-04 01:32:00,42.0,22.0,-100.00,NW,316,2.0,-999.0,44,-99.99,,,-99.99,,2013-06-04 05:32:00,
2013-06-04 01:42:00,42.0,22.0,-100.00,NW,316,2.0,-999.0,44,-99.99,,,-99.99,,2013-06-04 05:42:00,
2013-06-04 01:52:00,42.0,22.0,-100.00,NW,316,2.0,-999.0,44,-99.99,,,-99.99,,2013-06-04 05:52:00,
2013-06-04 02:02:00,42.0,22.0,-100.00,NW,316,2.0,-999.0,44,-99.99,,,-99.99,,2013-06-04 06:02:00,
2013-06-04 02:12:00,42.0,22.0,-100.00,NW,316,2.0,-999.0,44,-99.99,,,-99.99,,2013-06-04 06:12:00,
2013-06-04 02:22:00,42.0,22.0,-100.00,NW,304,2.0,-999.0,44,-99.99,,,-99.99,,2013-06-04 06:22:00,
2013-06-04 02:52:00,42.0,34.0,-100.00,West,270,3.0,-999.0,73,-99.99,,,-99.99,,2013-06-04 06:52:00,
2013-06-04 03:02:00,42.0,34.0,-100.00,West,270,3.0,-999.0,73,-99.99,,,-99.99,,2013-06-04 07:02:00,
2013-06-04 03:13:00,42.0,34.0,-100.00,West,270,3.0,-999.0,73,-99.99,,,-99.99,,2013-06-04 07:13:00,
2013-06-04 03:22:00,42.0,31.0,-100.00,West,268,6.0,-999.0,65,-99.99,,,-99.99,,2013-06-04 07:22:00,
2013-06-04 03:32:00,41.0,31.0,-100.00,West,274,6.0,-999.0,68,-99.99,,,-99.99,,2013-06-04 07:32:00,
2013-06-04 03:42:00,41.0,31.0,-100.00,West,274,6.0,-999.0,68,-99.99,,,-99.99,,2013-06-04 07:42:00,
2013-06-04 03:52:00,41.0,31.0,-100.00,West,274,6.0,-999.0,68,-99.99,,,-99.99,,2013-06-04 07:52:00,
2013-06-04 04:02:00,41.0,31.0,-100.00,West,274,6.0,-999.0,68,-99.99,,,-99.99,,2013-06-04 08:02:00,
2013-06-04 04:12:00,41.0,31.0,-100.00,West,274,6.0,-999.0,68,-99.99,,,-99.99,,2013-06-04 08:12:00,
2013-06-04 04:22:00,41.0,34.0,-100.00,WSW,256,5.0,-999.0,76,-99.99,,,-99.99,,2013-06-04 08:22:00,
2013-06-04 04:52:00,40.0,33.0,-100.00,West,264,3.0,-999.0,76,-99.99,,,-99.99,,2013-06-04 08:52:00,
2013-06-04 05:02:00,40.0,33.0,-100.00,West,264,3.0,-999.0,76,-99.99,,,-99.99,,2013-06-04 09:02:00,
2013-06-04 05:12:00,40.0,33.0,-100.00,West,264,3.0,-999.0,76,-99.99,,,-99.99,,2013-06-04 09:12:00,
2013-06-04 05:22:00,40.0,33.0,-100.00,WNW,296,2.0,-999.0,76,-99.99,,,-99.99,,2013-06-04 09:22:00,
2013-06-04 05:33:00,38.0,33.0,-100.00,West,272,3.0,-999.0,82,-99.99,,,-99.99,,2013-06-04 09:33:00,
2013-06-04 05:43:00,38.0,33.0,-100.00,West,272,3.0,-999.0,82,-99.99,,,-99.99,,2013-06-04 09:43:00,
2013-06-04 05:53:00,38.0,33.0,-100.00,West,272,3.0,-999.0,82,-99.99,,,-99.99,,2013-06-04 09:53:00,
2013-06-04 06:12:00,38.0,33.0,-100.00,West,272,3.0,-999.0,82,-99.99,,,-99.99,,2013-06-04 10:12:00,
2013-06-04 06:23:00,38.0,33.0,-100.00,West,272,3.0,-999.0,82,-99.99,,,-99.99,,2013-06-04 10:23:00,
2013-06-04 06:52:00,38.0,33.0,-100.00,WNW,300,2.0,-999.0,82,-99.99,,,-99.99,,2013-06-04 10:52:00,
2013-06-04 07:02:00,38.0,33.0,-100.00,WNW,300,2.0,-999.0,82,-99.99,,,-99.99,,2013-06-04 11:02:00,
2013-06-04 07:12:00,38.0,33.0,-100.00,WNW,300,2.0,-999.0,82,-99.99,,,-99.99,,2013-06-04 11:12:00,
2013-06-04 07:22:00,38.0,33.0,-100.00,WNW,300,2.0,-999.0,82,-99.99,,,-99.99,,2013-06-04 11:22:00,
2013-06-04 07:32:00,39.0,34.0,-100.00,West,274,3.0,-999.0,82,-99.99,,,-99.99,,2013-06-04 11:32:00,
2013-06-04 07:42:00,39.0,34.0,-100.00,West,274,3.0,-999.0,82,-99.99,,,-99.99,,2013-06-04 11:42:00,
2013-06-04 07:52:00,39.0,34.0,-100.00,West,274,3.0,-999.0,82,-99.99,,,-99.99,,2013-06-04 11:52:00,
2013-06-04 08:02:00,39.0,34.0,-100.00,West,274,3.0,-999.0,82,-99.99,,,-99.99,,2013-06-04 12:02:00,
2013-06-04 08:12:00,39.0,34.0,-100.00,West,274,3.0,-999.0,82,-99.99,,,-99.99,,2013-06-04 12:12:00,
2013-06-04 08:22:00,39.0,37.0,-100.00,West,264,3.0,-999.0,93,-99.99,,,-99.99,,2013-06-04 12:22:00,
2013-06-04 08:32:00,45.0,39.0,-100.00,West,270,3.0,-999.0,80,-99.99,,,-99.99,,2013-06-04 12:32:00,
2013-06-04 08:42:00,45.0,39.0,-100.00,West,270,3.0,-999.0,80,-99.99,,,-99.99,,2013-06-04 12:42:00,
2013-06-04 08:52:00,45.0,39.0,-100.00,West,270,3.0,-999.0,80,-99.99,,,-99.99,,2013-06-04 12:52:00,
2013-06-04 09:03:00,45.0,39.0,-100.00,West,270,3.0,-999.0,80,-99.99,,,-99.99,,2013-06-04 13:03:00,
2013-06-04 09:12:00,45.0,39.0,-100.00,West,270,3.0,-999.0,80,-99.99,,,-99.99,,2013-06-04 13:12:00,
2013-06-04 09:22:00,45.0,39.0,-100.00,West,270,3.0,-999.0,80,-99.99,,,-99.99,,2013-06-04 13:22:00,
2013-06-04 09:32:00,51.0,38.0,-100.00,WNW,282,5.0,-999.0,61,-99.99,,,-99.99,,2013-06-04 13:32:00,
2013-06-04 09:42:00,51.0,38.0,-100.00,WNW,282,5.0,-999.0,61,-99.99,,,-99.99,,2013-06-04 13:42:00,
2013-06-04 09:52:00,51.0,38.0,-100.00,WNW,282,5.0,-999.0,61,-99.99,,,-99.99,,2013-06-04 13:52:00,
2013-06-04 10:12:00,51.0,38.0,-100.00,WNW,282,5.0,-999.0,61,-99.99,,,-99.99,,2013-06-04 14:12:00,
2013-06-04 10:22:00,51.0,38.0,-100.00,WNW,282,5.0,-999.0,61,-99.99,,,-99.99,,2013-06-04 14:22:00,
2013-06-04 10:32:00,56.0,35.0,-100.00,WNW,298,5.0,-999.0,45,-99.99,,,-99.99,,2013-06-04 14:32:00,
2013-06-04 10:52:00,56.0,35.0,-100.00,WNW,298,5.0,-999.0,45,-99.99,,,-99.99,,2013-06-04 14:52:00,
2013-06-04 11:02:00,56.0,35.0,-100.00,WNW,298,5.0,-999.0,45,-99.99,,,-99.99,,2013-06-04 15:02:00,
2013-06-04 11:22:00,56.0,34.0,-100.00,West,280,5.0,-999.0,44,-99.99,,,-99.99,,2013-06-04 15:22:00,
2013-06-04 11:33:00,59.0,34.0,-100.00,West,264,6.0,-999.0,39,-99.99,,,-99.99,,2013-06-04 15:33:00,
2013-06-04 11:42:00,59.0,34.0,-100.00,West,264,6.0,-999.0,39,-99.99,,,-99.99,,2013-06-04 15:42:00,
2013-06-04 11:53:00,59.0,34.0,-100.00,West,264,6.0,-999.0,39,-99.99,,,-99.99,,2013-06-04 15:53:00,
2013-06-04 12:03:00,59.0,34.0,-100.00,West,264,6.0,-999.0,39,-99.99,,,-99.99,,2013-06-04 16:03:00,
2013-06-04 12:13:00,59.0,34.0,-100.00,West,264,6.0,-999.0,39,-99.99,,,-99.99,,2013-06-04 16:13:00,
2013-06-04 12:23:00,59.0,38.0,-100.00,WNW,282,2.0,-999.0,46,-99.99,,,-99.99,,2013-06-04 16:23:00,
2013-06-04 12:33:00,60.0,38.0,-100.00,WNW,290,3.0,-999.0,43,-99.99,,,-99.99,,2013-06-04 16:33:00,
2013-06-04 12:42:00,60.0,38.0,-100.00,WNW,290,3.0,-999.0,43,-99.99,,,-99.99,,2013-06-04 16:42:00,
2013-06-04 12:52:00,60.0,38.0,-100.00,WNW,290,3.0,-999.0,43,-99.99,,,-99.99,,2013-06-04 16:52:00,
2013-06-04 13:03:00,60.0,38.0,-100.00,WNW,290,3.0,-999.0,43,-99.99,,,-99.99,,2013-06-04 17:03:00,
2013-06-04 14:12:00,61.0,51.0,-100.00,WSW,252,7.0,-999.0,70,-99.99,,,-99.99,,2013-06-04 18:12:00,
2013-06-04 14:22:00,61.0,51.0,-100.00,SW,220,7.0,-999.0,70,-99.99,,,-99.99,,2013-06-04 18:22:00,
2013-06-04 14:32:00,64.0,54.0,-100.00,SW,224,7.0,-999.0,70,-99.99,,,-99.99,,2013-06-04 18:32:00,
2013-06-04 14:42:00,64.0,54.0,-100.00,SW,224,7.0,-999.0,70,-99.99,,,-99.99,,2013-06-04 18:42:00,
2013-06-04 15:42:00,64.0,54.0,-100.00,West,274,5.0,-999.0,70,-99.99,,,-99.99,,2013-06-04 19:42:00,
2013-06-04 15:52:00,64.0,54.0,-100.00,West,274,5.0,-999.0,70,-99.99,,,-99.99,,2013-06-04 19:52:00,
2013-06-04 16:03:00,64.0,54.0,-100.00,West,274,5.0,-999.0,70,-99.99,,,-99.99,,2013-06-04 20:03:00,
2013-06-04 16:13:00,64.0,54.0,-100.00,West,274,5.0,-999.0,70,-99.99,,,-99.99,,2013-06-04 20:13:00,
2013-06-04 16:22:00,64.0,54.0,-100.00,WNW,298,6.0,-999.0,70,-99.99,,,-99.99,,2013-06-04 20:22:00,
2013-06-04 16:32:00,64.0,54.0,-100.00,WNW,300,6.0,-999.0,70,-99.99,,,-99.99,,2013-06-04 20:32:00,
2013-06-04 16:42:00,64.0,54.0,-100.00,WNW,300,6.0,-999.0,70,-99.99,,,-99.99,,2013-06-04 20:42:00,
2013-06-04 16:52:00,64.0,54.0,-100.00,WNW,300,6.0,-999.0,70,-99.99,,,-99.99,,2013-06-04 20:52:00,
2013-06-04 17:42:00,63.0,49.0,-100.00,NW,304,5.0,-999.0,60,-99.99,,,-99.99,,2013-06-04 21:42:00,
2013-06-04 18:22:00,63.0,50.0,-100.00,West,276,6.0,-999.0,62,-99.99,,,-99.99,,2013-06-04 22:22:00,
2013-06-04 18:33:00,62.0,49.0,-100.00,West,272,7.0,-999.0,62,-99.99,,,-99.99,,2013-06-04 22:33:00,
2013-06-04 18:42:00,62.0,49.0,-100.00,West,272,7.0,-999.0,62,-99.99,,,-99.99,,2013-06-04 22:42:00,
2013-06-04 18:52:00,62.0,49.0,-100.00,West,272,7.0,-999.0,62,-99.99,,,-99.99,,2013-06-04 22:52:00,
2013-06-04 19:02:00,62.0,49.0,-100.00,West,272,7.0,-999.0,62,-99.99,,,-99.99,,2013-06-04 23:02:00,
2013-06-04 19:12:00,62.0,49.0,-100.00,West,272,7.0,-999.0,62,-99.99,,,-99.99,,2013-06-04 23:12:00,
2013-06-04 19:22:00,62.0,49.0,-100.00,NW,316,6.0,-999.0,62,-99.99,,,-99.99,,2013-06-04 23:22:00,
2013-06-04 19:32:00,61.0,48.0,-100.00,NW,326,5.0,-999.0,62,-99.99,,,-99.99,,2013-06-04 23:32:00,
2013-06-04 19:42:00,61.0,48.0,-100.00,NW,326,5.0,-999.0,62,-99.99,,,-99.99,,2013-06-04 23:42:00,
2013-06-04 19:52:00,61.0,48.0,-100.00,NW,326,5.0,-999.0,62,-99.99,,,-99.99,,2013-06-04 23:52:00,
2013-06-04 20:02:00,61.0,48.0,-100.00,NW,326,5.0,-999.0,62,-99.99,,,-99.99,,2013-06-05 00:02:00,
2013-06-04 20:12:00,61.0,48.0,-100.00,NW,326,5.0,-999.0,62,-99.99,,,-99.99,,2013-06-05 00:12:00,
2013-06-04 20:22:00,61.0,48.0,-100.00,WNW,292,3.0,-999.0,62,-99.99,,,-99.99,,2013-06-05 00:22:00,
2013-06-04 20:42:00,60.0,47.0,-100.00,West,268,2.0,-999.0,62,-99.99,,,-99.99,,2013-06-05 00:42:00,
2013-06-04 20:52:00,60.0,47.0,-100.00,West,268,2.0,-999.0,62,-99.99,,,-99.99,,2013-06-05 00:52:00,
2013-06-04 21:02:00,60.0,47.0,-100.00,West,268,2.0,-999.0,62,-99.99,,,-99.99,,2013-06-05 01:02:00,
2013-06-04 21:12:00,60.0,47.0,-100.00,West,268,2.0,-999.0,62,-99.99,,,-99.99,,2013-06-05 01:12:00,
2013-06-04 21:22:00,60.0,47.0,-100.00,NW,318,5.0,-999.0,62,-99.99,,,-99.99,,2013-06-05 01:22:00,
2013-06-04 21:32:00,57.0,44.0,-100.00,NW,316,5.0,-999.0,62,-99.99,,,-99.99,,2013-06-05 01:32:00,
2013-06-04 21:42:00,57.0,44.0,-100.00,NW,316,5.0,-999.0,62,-99.99,,,-99.99,,2013-06-05 01:42:00,
2013-06-04 21:52:00,57.0,44.0,-100.00,NW,316,5.0,-999.0,62,-99.99,,,-99.99,,2013-06-05 01:52:00,
2013-06-04 22:02:00,57.0,44.0,-100.00,NW,316,5.0,-999.0,62,-99.99,,,-99.99,,2013-06-05 02:02:00,
2013-06-04 22:12:00,57.0,44.0,-100.00,NW,316,5.0,-999.0,62,-99.99,,,-99.99,,2013-06-05 02:12:00,
2013-06-04 22:22:00,57.0,44.0,-100.00,NW,308,3.0,-999.0,62,-99.99,,,-99.99,,2013-06-05 02:22:00,
2013-06-04 22:32:00,52.0,39.0,-100.00,WNW,302,2.0,-999.0,62,-99.99,,,-99.99,,2013-06-05 02:32:00,
2013-06-04 22:42:00,52.0,39.0,-100.00,WNW,302,2.0,-999.0,62,-99.99,,,-99.99,,2013-06-05 02:42:00,
2013-06-04 22:52:00,52.0,39.0,-100.00,WNW,302,2.0,-999.0,62,-99.99,,,-99.99,,2013-06-05 02:52:00,
2013-06-04 23:02:00,52.0,39.0,-100.00,WNW,302,2.0,-999.0,62,-99.99,,,-99.99,,2013-06-05 03:02:00,
2013-06-04 23:12:00,52.0,39.0,-100.00,WNW,302,2.0,-999.0,62,-99.99,,,-99.99,,2013-06-05 03:12:00,
2013-06-04 23:22:00,52.0,39.0,-100.00,NNW,348,3.0,-999.0,62,-99.99,,,-99.99,,2013-06-05 03:22:00,
2013-06-04 23:33:00,51.0,39.0,-100.00,North,2,3.0,-999.0,62,-99.99,,,-99.99,,2013-06-05 03:33:00,
2013-06-04 23:43:00,51.0,39.0,-100.00,North,2,3.0,-999.0,62,-99.99,,,-99.99,,2013-06-05 03:43:00,
2013-06-04 23:53:00,51.0,39.0,-100.00,North,2,3.0,-999.0,62,-99.99,,,-99.99,,2013-06-05 03:53:00,